sensor_id;sensor_type;location;lat;lon;timestamp;P1;durP1;ratioP1;P2;durP2;ratioP2
16967;SDS011;64862;54.398;10.126;2023-08-20T00:02:58;36.00;;;19.38;;
16967;SDS011;64862;54.398;10.126;2023-08-20T00:13:05;42.15;;;20.90;;
16967;SDS011;64862;54.398;10.126;2023-08-20T00:23:08;45.20;;;19.90;;
16967;SDS011;64862;54.398;10.126;2023-08-20T00:33:12;42.60;;;18.65;;
16967;SDS011;64862;54.398;10.126;2023-08-20T00:43:15;37.47;;;17.17;;
16967;SDS011;64862;54.398;10.126;2023-08-20T00:53:18;39.47;;;16.52;;
16967;SDS011;64862;54.398;10.126;2023-08-20T01:03:22;42.72;;;17.70;;
16967;SDS011;64862;54.398;10.126;2023-08-20T01:13:25;35.03;;;17.00;;
16967;SDS011;64862;54.398;10.126;2023-08-20T01:33:54;37.20;;;15.70;;
16967;SDS011;64862;54.398;10.126;2023-08-20T01:43:57;30.60;;;15.20;;
16967;SDS011;64862;54.398;10.126;2023-08-20T01:54:00;28.20;;;14.77;;
16967;SDS011;64862;54.398;10.126;2023-08-20T02:04:02;43.55;;;19.10;;
16967;SDS011;64862;54.398;10.126;2023-08-20T02:14:05;40.70;;;20.25;;
16967;SDS011;64862;54.398;10.126;2023-08-20T02:24:07;38.00;;;19.23;;
16967;SDS011;64862;54.398;10.126;2023-08-20T02:34:12;35.72;;;17.40;;
16967;SDS011;64862;54.398;10.126;2023-08-20T02:44:14;34.17;;;16.88;;
16967;SDS011;64862;54.398;10.126;2023-08-20T02:54:17;29.33;;;14.57;;
16967;SDS011;64862;54.398;10.126;2023-08-20T03:04:19;34.10;;;16.08;;
16967;SDS011;64862;54.398;10.126;2023-08-20T03:14:22;31.75;;;15.57;;
16967;SDS011;64862;54.398;10.126;2023-08-20T03:24:24;31.38;;;14.55;;
16967;SDS011;64862;54.398;10.126;2023-08-20T03:34:27;27.88;;;13.50;;
16967;SDS011;64862;54.398;10.126;2023-08-20T03:44:31;33.95;;;15.77;;
16967;SDS011;64862;54.398;10.126;2023-08-20T03:54:34;31.50;;;15.63;;
16967;SDS011;64862;54.398;10.126;2023-08-20T04:04:36;31.80;;;16.13;;
16967;SDS011;64862;54.398;10.126;2023-08-20T04:14:39;31.52;;;16.00;;
16967;SDS011;64862;54.398;10.126;2023-08-20T04:24:41;32.78;;;15.48;;
16967;SDS011;64862;54.398;10.126;2023-08-20T04:34:45;29.50;;;14.15;;
16967;SDS011;64862;54.398;10.126;2023-08-20T04:44:49;33.13;;;16.40;;
16967;SDS011;64862;54.398;10.126;2023-08-20T04:54:54;27.60;;;13.90;;
16967;SDS011;64862;54.398;10.126;2023-08-20T05:04:56;27.05;;;14.82;;
16967;SDS011;64862;54.398;10.126;2023-08-20T05:15:00;25.17;;;12.68;;
16967;SDS011;64862;54.398;10.126;2023-08-20T05:25:02;29.50;;;12.75;;
16967;SDS011;64862;54.398;10.126;2023-08-20T05:35:07;22.92;;;11.98;;
16967;SDS011;64862;54.398;10.126;2023-08-20T05:45:11;31.83;;;12.33;;
16967;SDS011;64862;54.398;10.126;2023-08-20T05:55:16;23.92;;;13.18;;
16967;SDS011;64862;54.398;10.126;2023-08-20T06:05:18;32.55;;;12.18;;
16967;SDS011;64862;54.398;10.126;2023-08-20T06:15:21;29.48;;;13.93;;
16967;SDS011;64862;54.398;10.126;2023-08-20T06:25:23;34.72;;;14.88;;
16967;SDS011;64862;54.398;10.126;2023-08-20T06:35:26;30.95;;;12.88;;
16967;SDS011;64862;54.398;10.126;2023-08-20T06:45:29;29.38;;;11.00;;
16967;SDS011;64862;54.398;10.126;2023-08-20T06:55:33;25.15;;;10.60;;
16967;SDS011;64862;54.398;10.126;2023-08-20T07:05:35;20.42;;;9.25;;
16967;SDS011;64862;54.398;10.126;2023-08-20T07:15:38;32.45;;;14.90;;
16967;SDS011;64862;54.398;10.126;2023-08-20T07:25:40;25.25;;;13.48;;
16967;SDS011;64862;54.398;10.126;2023-08-20T07:35:46;32.65;;;15.27;;
16967;SDS011;64862;54.398;10.126;2023-08-20T07:45:48;33.75;;;15.77;;
16967;SDS011;64862;54.398;10.126;2023-08-20T07:55:51;36.97;;;15.95;;
16967;SDS011;64862;54.398;10.126;2023-08-20T08:05:54;29.02;;;13.27;;
16967;SDS011;64862;54.398;10.126;2023-08-20T08:15:58;28.08;;;11.27;;
16967;SDS011;64862;54.398;10.126;2023-08-20T08:26:01;21.65;;;10.50;;
16967;SDS011;64862;54.398;10.126;2023-08-20T08:36:05;21.33;;;9.05;;
16967;SDS011;64862;54.398;10.126;2023-08-20T08:46:07;21.60;;;8.38;;
16967;SDS011;64862;54.398;10.126;2023-08-20T08:56:15;21.30;;;6.93;;
16967;SDS011;64862;54.398;10.126;2023-08-20T09:06:18;22.75;;;6.47;;
16967;SDS011;64862;54.398;10.126;2023-08-20T09:16:23;16.55;;;5.28;;
16967;SDS011;64862;54.398;10.126;2023-08-20T09:26:31;20.30;;;5.00;;
16967;SDS011;64862;54.398;10.126;2023-08-20T09:36:35;16.63;;;3.95;;
16967;SDS011;64862;54.398;10.126;2023-08-20T09:46:38;10.73;;;3.35;;
16967;SDS011;64862;54.398;10.126;2023-08-20T09:56:45;12.85;;;3.58;;
16967;SDS011;64862;54.398;10.126;2023-08-20T10:06:51;12.73;;;3.05;;
16967;SDS011;64862;54.398;10.126;2023-08-20T10:16:56;11.95;;;2.70;;
16967;SDS011;64862;54.398;10.126;2023-08-20T10:27:07;11.68;;;2.22;;
16967;SDS011;64862;54.398;10.126;2023-08-20T10:37:13;7.68;;;1.80;;
16967;SDS011;64862;54.398;10.126;2023-08-20T10:47:16;8.13;;;2.37;;
16967;SDS011;64862;54.398;10.126;2023-08-20T10:57:20;8.35;;;1.90;;
16967;SDS011;64862;54.398;10.126;2023-08-20T11:07:23;9.52;;;2.38;;
16967;SDS011;64862;54.398;10.126;2023-08-20T11:17:30;14.55;;;2.80;;
16967;SDS011;64862;54.398;10.126;2023-08-20T11:27:32;9.40;;;2.60;;
16967;SDS011;64862;54.398;10.126;2023-08-20T11:37:38;12.52;;;2.72;;
16967;SDS011;64862;54.398;10.126;2023-08-20T11:47:42;10.07;;;2.80;;
16967;SDS011;64862;54.398;10.126;2023-08-20T11:57:50;10.80;;;2.70;;
16967;SDS011;64862;54.398;10.126;2023-08-20T12:07:56;9.13;;;2.33;;
16967;SDS011;64862;54.398;10.126;2023-08-20T12:18:01;7.25;;;1.95;;
16967;SDS011;64862;54.398;10.126;2023-08-20T12:28:06;6.78;;;1.70;;
16967;SDS011;64862;54.398;10.126;2023-08-20T12:38:12;7.57;;;1.90;;
16967;SDS011;64862;54.398;10.126;2023-08-20T12:48:13;5.07;;;1.13;;
16967;SDS011;64862;54.398;10.126;2023-08-20T12:58:17;7.10;;;1.38;;
16967;SDS011;64862;54.398;10.126;2023-08-20T13:08:20;10.35;;;1.50;;
16967;SDS011;64862;54.398;10.126;2023-08-20T13:18:26;8.43;;;1.73;;
16967;SDS011;64862;54.398;10.126;2023-08-20T13:28:29;10.07;;;1.40;;
16967;SDS011;64862;54.398;10.126;2023-08-20T13:38:34;7.53;;;1.20;;
16967;SDS011;64862;54.398;10.126;2023-08-20T13:48:36;8.32;;;1.42;;
16967;SDS011;64862;54.398;10.126;2023-08-20T13:58:40;5.68;;;1.13;;
16967;SDS011;64862;54.398;10.126;2023-08-20T14:08:42;7.95;;;1.30;;
16967;SDS011;64862;54.398;10.126;2023-08-20T14:18:47;6.68;;;1.38;;
16967;SDS011;64862;54.398;10.126;2023-08-20T14:28:50;6.97;;;1.30;;
16967;SDS011;64862;54.398;10.126;2023-08-20T14:38:54;9.02;;;1.55;;
16967;SDS011;64862;54.398;10.126;2023-08-20T14:48:56;7.13;;;1.52;;
16967;SDS011;64862;54.398;10.126;2023-08-20T14:59:01;8.20;;;1.50;;
16967;SDS011;64862;54.398;10.126;2023-08-20T15:09:04;7.93;;;1.30;;
16967;SDS011;64862;54.398;10.126;2023-08-20T15:19:09;8.85;;;1.77;;
16967;SDS011;64862;54.398;10.126;2023-08-20T15:29:12;9.18;;;1.40;;
16967;SDS011;64862;54.398;10.126;2023-08-20T15:39:15;8.05;;;1.63;;
16967;SDS011;64862;54.398;10.126;2023-08-20T15:59:23;8.15;;;1.45;;
16967;SDS011;64862;54.398;10.126;2023-08-20T16:09:25;9.23;;;1.50;;
16967;SDS011;64862;54.398;10.126;2023-08-20T16:19:30;8.85;;;1.80;;
16967;SDS011;64862;54.398;10.126;2023-08-20T16:29:32;8.77;;;1.67;;
16967;SDS011;64862;54.398;10.126;2023-08-20T16:39:36;8.57;;;1.65;;
16967;SDS011;64862;54.398;10.126;2023-08-20T16:49:38;10.27;;;1.80;;
16967;SDS011;64862;54.398;10.126;2023-08-20T16:59:44;11.03;;;1.70;;
16967;SDS011;64862;54.398;10.126;2023-08-20T17:09:47;8.73;;;1.60;;
16967;SDS011;64862;54.398;10.126;2023-08-20T17:19:52;8.70;;;1.60;;
16967;SDS011;64862;54.398;10.126;2023-08-20T17:29:53;7.18;;;1.70;;
16967;SDS011;64862;54.398;10.126;2023-08-20T17:39:57;9.82;;;1.70;;
16967;SDS011;64862;54.398;10.126;2023-08-20T17:49:59;9.43;;;1.63;;
16967;SDS011;64862;54.398;10.126;2023-08-20T18:00:02;7.30;;;1.38;;
16967;SDS011;64862;54.398;10.126;2023-08-20T18:10:12;12.00;;;2.20;;
16967;SDS011;64862;54.398;10.126;2023-08-20T18:20:16;6.75;;;1.77;;
16967;SDS011;64862;54.398;10.126;2023-08-20T18:30:19;8.77;;;2.08;;
16967;SDS011;64862;54.398;10.126;2023-08-20T18:40:22;9.60;;;1.80;;
16967;SDS011;64862;54.398;10.126;2023-08-20T18:50:24;11.82;;;2.17;;
16967;SDS011;64862;54.398;10.126;2023-08-20T19:00:30;8.63;;;1.80;;
16967;SDS011;64862;54.398;10.126;2023-08-20T19:10:34;9.10;;;2.00;;
16967;SDS011;64862;54.398;10.126;2023-08-20T19:20:37;10.27;;;1.92;;
16967;SDS011;64862;54.398;10.126;2023-08-20T19:30:46;9.52;;;2.10;;
16967;SDS011;64862;54.398;10.126;2023-08-20T19:40:50;12.15;;;2.95;;
16967;SDS011;64862;54.398;10.126;2023-08-20T19:50:53;11.73;;;3.05;;
16967;SDS011;64862;54.398;10.126;2023-08-20T20:00:57;15.85;;;3.15;;
16967;SDS011;64862;54.398;10.126;2023-08-20T20:10:59;14.73;;;3.22;;
16967;SDS011;64862;54.398;10.126;2023-08-20T20:21:03;9.15;;;2.38;;
16967;SDS011;64862;54.398;10.126;2023-08-20T20:31:04;10.50;;;3.10;;
16967;SDS011;64862;54.398;10.126;2023-08-20T20:41:08;11.55;;;2.75;;
16967;SDS011;64862;54.398;10.126;2023-08-20T20:51:10;9.52;;;2.30;;
16967;SDS011;64862;54.398;10.126;2023-08-20T21:01:14;11.52;;;2.42;;
16967;SDS011;64862;54.398;10.126;2023-08-20T21:11:15;11.15;;;2.40;;
16967;SDS011;64862;54.398;10.126;2023-08-20T21:21:19;10.65;;;2.33;;
16967;SDS011;64862;54.398;10.126;2023-08-20T21:31:21;10.73;;;2.63;;
16967;SDS011;64862;54.398;10.126;2023-08-20T21:41:24;9.20;;;2.25;;
16967;SDS011;64862;54.398;10.126;2023-08-20T21:51:26;10.70;;;2.90;;
16967;SDS011;64862;54.398;10.126;2023-08-20T22:01:29;10.60;;;2.85;;
16967;SDS011;64862;54.398;10.126;2023-08-20T22:11:31;14.45;;;3.13;;
16967;SDS011;64862;54.398;10.126;2023-08-20T22:21:34;10.52;;;3.20;;
16967;SDS011;64862;54.398;10.126;2023-08-20T22:31:36;11.75;;;3.17;;
16967;SDS011;64862;54.398;10.126;2023-08-20T22:41:39;13.85;;;2.92;;
16967;SDS011;64862;54.398;10.126;2023-08-20T22:51:41;14.30;;;3.40;;
16967;SDS011;64862;54.398;10.126;2023-08-20T23:01:44;13.75;;;3.80;;
16967;SDS011;64862;54.398;10.126;2023-08-20T23:11:47;16.60;;;4.80;;
16967;SDS011;64862;54.398;10.126;2023-08-20T23:21:50;14.25;;;4.05;;
16967;SDS011;64862;54.398;10.126;2023-08-20T23:31:52;13.27;;;4.13;;
16967;SDS011;64862;54.398;10.126;2023-08-20T23:41:55;15.30;;;4.50;;
16967;SDS011;64862;54.398;10.126;2023-08-20T23:51:57;25.48;;;5.63;;
